sensor_id;sensor_type;location;lat;lon;timestamp;P1;durP1;ratioP1;P2;durP2;ratioP2
64252;SDS011;50592;52.958;-7.470;2023-05-21T00:02:10;12.90;;;6.93;;
64252;SDS011;50592;52.958;-7.470;2023-05-21T00:04:45;10.88;;;5.95;;
64252;SDS011;50592;52.958;-7.470;2023-05-21T00:07:12;12.05;;;6.22;;
64252;SDS011;50592;52.958;-7.470;2023-05-21T00:09:42;12.35;;;6.20;;
64252;SDS011;50592;52.958;-7.470;2023-05-21T00:12:09;21.02;;;7.78;;
64252;SDS011;50592;52.958;-7.470;2023-05-21T00:14:38;17.52;;;6.90;;
64252;SDS011;50592;52.958;-7.470;2023-05-21T00:17:05;12.27;;;7.00;;
64252;SDS011;50592;52.958;-7.470;2023-05-21T00:19:34;10.77;;;6.07;;
64252;SDS011;50592;52.958;-7.470;2023-05-21T00:22:01;10.65;;;6.68;;
64252;SDS011;50592;52.958;-7.470;2023-05-21T00:24:30;12.90;;;6.45;;
64252;SDS011;50592;52.958;-7.470;2023-05-21T00:26:57;9.13;;;5.85;;
64252;SDS011;50592;52.958;-7.470;2023-05-21T00:29:26;12.63;;;6.03;;
64252;SDS011;50592;52.958;-7.470;2023-05-21T00:31:55;11.23;;;5.72;;
64252;SDS011;50592;52.958;-7.470;2023-05-21T00:34:24;9.73;;;5.93;;
64252;SDS011;50592;52.958;-7.470;2023-05-21T00:36:52;10.27;;;5.88;;
64252;SDS011;50592;52.958;-7.470;2023-05-21T00:39:22;9.02;;;5.38;;
64252;SDS011;50592;52.958;-7.470;2023-05-21T00:41:49;9.95;;;5.40;;
64252;SDS011;50592;52.958;-7.470;2023-05-21T00:44:18;14.45;;;6.10;;
64252;SDS011;50592;52.958;-7.470;2023-05-21T00:46:45;15.38;;;6.28;;
64252;SDS011;50592;52.958;-7.470;2023-05-21T00:49:16;7.10;;;4.38;;
64252;SDS011;50592;52.958;-7.470;2023-05-21T00:51:46;5.82;;;4.40;;
64252;SDS011;50592;52.958;-7.470;2023-05-21T00:54:13;8.85;;;4.95;;
64252;SDS011;50592;52.958;-7.470;2023-05-21T00:56:42;9.15;;;5.25;;
64252;SDS011;50592;52.958;-7.470;2023-05-21T00:59:09;6.88;;;4.05;;
64252;SDS011;50592;52.958;-7.470;2023-05-21T01:01:38;7.30;;;3.70;;
64252;SDS011;50592;52.958;-7.470;2023-05-21T01:04:06;6.28;;;3.30;;
64252;SDS011;50592;52.958;-7.470;2023-05-21T01:06:34;5.18;;;3.15;;
64252;SDS011;50592;52.958;-7.470;2023-05-21T01:09:02;3.58;;;2.50;;
64252;SDS011;50592;52.958;-7.470;2023-05-21T01:11:42;4.75;;;2.22;;
64252;SDS011;50592;52.958;-7.470;2023-05-21T01:14:13;4.75;;;2.80;;
64252;SDS011;50592;52.958;-7.470;2023-05-21T01:16:43;5.22;;;2.33;;
64252;SDS011;50592;52.958;-7.470;2023-05-21T01:19:14;3.33;;;2.42;;
64252;SDS011;50592;52.958;-7.470;2023-05-21T01:21:45;4.75;;;2.72;;
64252;SDS011;50592;52.958;-7.470;2023-05-21T01:24:26;4.05;;;2.70;;
64252;SDS011;50592;52.958;-7.470;2023-05-21T01:26:54;5.10;;;2.72;;
64252;SDS011;50592;52.958;-7.470;2023-05-21T01:29:22;4.40;;;2.58;;
64252;SDS011;50592;52.958;-7.470;2023-05-21T01:37:47;4.50;;;2.40;;
64252;SDS011;50592;52.958;-7.470;2023-05-21T01:40:30;6.95;;;2.88;;
64252;SDS011;50592;52.958;-7.470;2023-05-21T01:43:07;2.47;;;2.10;;
64252;SDS011;50592;52.958;-7.470;2023-05-21T01:45:38;3.75;;;2.75;;
64252;SDS011;50592;52.958;-7.470;2023-05-21T01:48:09;4.25;;;2.63;;
64252;SDS011;50592;52.958;-7.470;2023-05-21T01:50:42;4.95;;;2.70;;
64252;SDS011;50592;52.958;-7.470;2023-05-21T01:53:13;2.70;;;2.25;;
64252;SDS011;50592;52.958;-7.470;2023-05-21T01:55:44;5.88;;;3.05;;
64252;SDS011;50592;52.958;-7.470;2023-05-21T01:58:14;2.55;;;2.13;;
64252;SDS011;50592;52.958;-7.470;2023-05-21T02:00:41;4.35;;;2.30;;
64252;SDS011;50592;52.958;-7.470;2023-05-21T02:03:12;3.90;;;2.15;;
64252;SDS011;50592;52.958;-7.470;2023-05-21T02:05:43;2.78;;;2.10;;
64252;SDS011;50592;52.958;-7.470;2023-05-21T02:08:13;3.65;;;2.70;;
64252;SDS011;50592;52.958;-7.470;2023-05-21T02:10:41;3.97;;;2.60;;
64252;SDS011;50592;52.958;-7.470;2023-05-21T02:13:09;4.40;;;2.35;;
64252;SDS011;50592;52.958;-7.470;2023-05-21T02:15:37;3.35;;;2.40;;
64252;SDS011;50592;52.958;-7.470;2023-05-21T02:18:05;4.55;;;2.75;;
64252;SDS011;50592;52.958;-7.470;2023-05-21T02:20:33;3.38;;;2.40;;
64252;SDS011;50592;52.958;-7.470;2023-05-21T02:22:59;3.78;;;2.20;;
64252;SDS011;50592;52.958;-7.470;2023-05-21T02:25:28;4.13;;;3.17;;
64252;SDS011;50592;52.958;-7.470;2023-05-21T02:27:55;3.85;;;2.30;;
64252;SDS011;50592;52.958;-7.470;2023-05-21T02:30:25;3.58;;;2.58;;
64252;SDS011;50592;52.958;-7.470;2023-05-21T02:32:55;4.10;;;2.80;;
64252;SDS011;50592;52.958;-7.470;2023-05-21T02:35:25;4.63;;;2.40;;
64252;SDS011;50592;52.958;-7.470;2023-05-21T02:37:56;3.55;;;2.60;;
64252;SDS011;50592;52.958;-7.470;2023-05-21T02:40:24;2.58;;;2.38;;
64252;SDS011;50592;52.958;-7.470;2023-05-21T02:42:53;2.50;;;2.30;;
64252;SDS011;50592;52.958;-7.470;2023-05-21T02:45:20;4.65;;;2.20;;
64252;SDS011;50592;52.958;-7.470;2023-05-21T02:47:49;4.32;;;2.25;;
64252;SDS011;50592;52.958;-7.470;2023-05-21T02:50:20;3.58;;;2.28;;
64252;SDS011;50592;52.958;-7.470;2023-05-21T02:52:57;3.53;;;2.38;;
64252;SDS011;50592;52.958;-7.470;2023-05-21T02:55:30;3.47;;;2.78;;
64252;SDS011;50592;52.958;-7.470;2023-05-21T02:58:01;3.75;;;2.38;;
64252;SDS011;50592;52.958;-7.470;2023-05-21T03:00:28;4.25;;;2.63;;
64252;SDS011;50592;52.958;-7.470;2023-05-21T03:02:57;4.32;;;2.40;;
64252;SDS011;50592;52.958;-7.470;2023-05-21T03:05:24;3.13;;;2.42;;
64252;SDS011;50592;52.958;-7.470;2023-05-21T03:07:52;5.07;;;2.95;;
64252;SDS011;50592;52.958;-7.470;2023-05-21T03:10:19;4.22;;;2.63;;
64252;SDS011;50592;52.958;-7.470;2023-05-21T03:12:49;3.97;;;2.50;;
64252;SDS011;50592;52.958;-7.470;2023-05-21T03:15:20;4.03;;;3.30;;
64252;SDS011;50592;52.958;-7.470;2023-05-21T03:17:51;4.18;;;3.10;;
64252;SDS011;50592;52.958;-7.470;2023-05-21T03:20:19;3.85;;;3.20;;
64252;SDS011;50592;52.958;-7.470;2023-05-21T03:22:49;6.18;;;3.83;;
64252;SDS011;50592;52.958;-7.470;2023-05-21T03:25:17;8.32;;;4.65;;
64252;SDS011;50592;52.958;-7.470;2023-05-21T03:27:46;4.78;;;3.50;;
64252;SDS011;50592;52.958;-7.470;2023-05-21T03:30:40;5.57;;;2.85;;
64252;SDS011;50592;52.958;-7.470;2023-05-21T03:33:31;5.63;;;2.53;;
64252;SDS011;50592;52.958;-7.470;2023-05-21T03:36:00;4.78;;;3.25;;
64252;SDS011;50592;52.958;-7.470;2023-05-21T03:38:32;6.30;;;3.15;;
64252;SDS011;50592;52.958;-7.470;2023-05-21T03:41:00;5.60;;;3.28;;
64252;SDS011;50592;52.958;-7.470;2023-05-21T03:43:27;4.60;;;3.10;;
64252;SDS011;50592;52.958;-7.470;2023-05-21T03:45:55;4.28;;;2.97;;
64252;SDS011;50592;52.958;-7.470;2023-05-21T03:48:53;6.47;;;3.20;;
64252;SDS011;50592;52.958;-7.470;2023-05-21T03:51:26;5.30;;;3.03;;
64252;SDS011;50592;52.958;-7.470;2023-05-21T03:53:53;5.10;;;3.13;;
64252;SDS011;50592;52.958;-7.470;2023-05-21T03:56:23;5.95;;;3.58;;
64252;SDS011;50592;52.958;-7.470;2023-05-21T03:58:53;3.22;;;2.92;;
64252;SDS011;50592;52.958;-7.470;2023-05-21T04:01:22;4.00;;;2.80;;
64252;SDS011;50592;52.958;-7.470;2023-05-21T04:03:52;3.00;;;2.70;;
64252;SDS011;50592;52.958;-7.470;2023-05-21T04:06:21;6.20;;;2.70;;
64252;SDS011;50592;52.958;-7.470;2023-05-21T04:08:51;5.40;;;3.28;;
64252;SDS011;50592;52.958;-7.470;2023-05-21T04:11:20;4.28;;;3.13;;
64252;SDS011;50592;52.958;-7.470;2023-05-21T04:13:48;4.97;;;3.42;;
64252;SDS011;50592;52.958;-7.470;2023-05-21T04:16:15;7.32;;;3.20;;
64252;SDS011;50592;52.958;-7.470;2023-05-21T04:18:45;3.13;;;2.65;;
64252;SDS011;50592;52.958;-7.470;2023-05-21T04:21:13;7.70;;;3.22;;
64252;SDS011;50592;52.958;-7.470;2023-05-21T04:23:43;4.30;;;2.78;;
64252;SDS011;50592;52.958;-7.470;2023-05-21T04:26:19;7.28;;;3.20;;
64252;SDS011;50592;52.958;-7.470;2023-05-21T04:28:50;5.28;;;3.40;;
64252;SDS011;50592;52.958;-7.470;2023-05-21T04:31:21;5.72;;;3.28;;
64252;SDS011;50592;52.958;-7.470;2023-05-21T04:33:51;5.00;;;3.72;;
64252;SDS011;50592;52.958;-7.470;2023-05-21T04:36:21;4.35;;;3.20;;
64252;SDS011;50592;52.958;-7.470;2023-05-21T04:38:51;4.38;;;3.28;;
64252;SDS011;50592;52.958;-7.470;2023-05-21T04:41:22;6.68;;;3.33;;
64252;SDS011;50592;52.958;-7.470;2023-05-21T04:43:49;6.40;;;3.70;;
64252;SDS011;50592;52.958;-7.470;2023-05-21T04:46:24;4.72;;;3.60;;
64252;SDS011;50592;52.958;-7.470;2023-05-21T04:48:54;5.90;;;3.45;;
64252;SDS011;50592;52.958;-7.470;2023-05-21T04:51:25;9.48;;;3.40;;
64252;SDS011;50592;52.958;-7.470;2023-05-21T04:53:52;5.90;;;3.20;;
64252;SDS011;50592;52.958;-7.470;2023-05-21T04:56:21;5.50;;;3.60;;
64252;SDS011;50592;52.958;-7.470;2023-05-21T04:58:54;6.72;;;4.18;;
64252;SDS011;50592;52.958;-7.470;2023-05-21T05:01:26;4.05;;;3.03;;
64252;SDS011;50592;52.958;-7.470;2023-05-21T05:03:56;6.50;;;3.53;;
64252;SDS011;50592;52.958;-7.470;2023-05-21T05:06:25;4.72;;;3.33;;
64252;SDS011;50592;52.958;-7.470;2023-05-21T05:08:54;4.00;;;3.20;;
64252;SDS011;50592;52.958;-7.470;2023-05-21T05:11:22;4.13;;;3.20;;
64252;SDS011;50592;52.958;-7.470;2023-05-21T05:13:50;4.32;;;3.47;;
64252;SDS011;50592;52.958;-7.470;2023-05-21T05:16:19;3.00;;;2.67;;
64252;SDS011;50592;52.958;-7.470;2023-05-21T05:18:51;7.35;;;3.28;;
64252;SDS011;50592;52.958;-7.470;2023-05-21T05:21:20;3.88;;;3.13;;
64252;SDS011;50592;52.958;-7.470;2023-05-21T05:23:48;5.20;;;3.00;;
64252;SDS011;50592;52.958;-7.470;2023-05-21T05:26:19;3.78;;;2.88;;
64252;SDS011;50592;52.958;-7.470;2023-05-21T05:28:47;3.30;;;3.00;;
64252;SDS011;50592;52.958;-7.470;2023-05-21T05:31:17;3.38;;;2.38;;
64252;SDS011;50592;52.958;-7.470;2023-05-21T05:33:46;3.00;;;2.72;;
64252;SDS011;50592;52.958;-7.470;2023-05-21T05:36:14;5.32;;;2.75;;
64252;SDS011;50592;52.958;-7.470;2023-05-21T05:38:41;3.58;;;2.70;;
64252;SDS011;50592;52.958;-7.470;2023-05-21T05:41:11;4.22;;;2.97;;
64252;SDS011;50592;52.958;-7.470;2023-05-21T05:43:38;5.43;;;3.10;;
64252;SDS011;50592;52.958;-7.470;2023-05-21T05:46:07;4.35;;;2.88;;
64252;SDS011;50592;52.958;-7.470;2023-05-21T05:48:34;4.88;;;2.50;;
64252;SDS011;50592;52.958;-7.470;2023-05-21T05:51:03;2.42;;;2.20;;
64252;SDS011;50592;52.958;-7.470;2023-05-21T05:53:30;3.08;;;2.50;;
64252;SDS011;50592;52.958;-7.470;2023-05-21T05:56:00;2.85;;;1.92;;
64252;SDS011;50592;52.958;-7.470;2023-05-21T05:58:31;5.80;;;2.35;;
64252;SDS011;50592;52.958;-7.470;2023-05-21T06:01:11;6.72;;;2.75;;
64252;SDS011;50592;52.958;-7.470;2023-05-21T06:03:39;5.03;;;2.50;;
64252;SDS011;50592;52.958;-7.470;2023-05-21T06:06:15;4.82;;;2.50;;
64252;SDS011;50592;52.958;-7.470;2023-05-21T06:08:44;6.55;;;2.90;;
64252;SDS011;50592;52.958;-7.470;2023-05-21T06:11:11;6.40;;;2.50;;
64252;SDS011;50592;52.958;-7.470;2023-05-21T06:13:43;3.97;;;2.38;;
64252;SDS011;50592;52.958;-7.470;2023-05-21T06:16:11;5.20;;;2.38;;
64252;SDS011;50592;52.958;-7.470;2023-05-21T06:18:40;3.92;;;2.13;;
64252;SDS011;50592;52.958;-7.470;2023-05-21T06:21:07;3.08;;;2.75;;
64252;SDS011;50592;52.958;-7.470;2023-05-21T06:23:37;3.13;;;2.25;;
64252;SDS011;50592;52.958;-7.470;2023-05-21T06:26:08;2.40;;;2.13;;
64252;SDS011;50592;52.958;-7.470;2023-05-21T06:28:38;1.83;;;1.55;;
64252;SDS011;50592;52.958;-7.470;2023-05-21T06:31:06;2.55;;;1.70;;
64252;SDS011;50592;52.958;-7.470;2023-05-21T06:33:38;3.33;;;1.65;;
64252;SDS011;50592;52.958;-7.470;2023-05-21T06:36:08;4.90;;;1.95;;
64252;SDS011;50592;52.958;-7.470;2023-05-21T06:38:37;2.85;;;1.80;;
64252;SDS011;50592;52.958;-7.470;2023-05-21T06:41:05;3.85;;;1.63;;
64252;SDS011;50592;52.958;-7.470;2023-05-21T06:43:45;2.15;;;1.90;;
64252;SDS011;50592;52.958;-7.470;2023-05-21T06:46:50;1.92;;;1.73;;
64252;SDS011;50592;52.958;-7.470;2023-05-21T06:49:18;2.10;;;1.95;;
64252;SDS011;50592;52.958;-7.470;2023-05-21T06:51:47;1.90;;;1.80;;
64252;SDS011;50592;52.958;-7.470;2023-05-21T06:54:13;1.70;;;1.60;;
64252;SDS011;50592;52.958;-7.470;2023-05-21T06:56:43;2.25;;;1.65;;
64252;SDS011;50592;52.958;-7.470;2023-05-21T06:59:10;1.83;;;1.70;;
64252;SDS011;50592;52.958;-7.470;2023-05-21T07:01:39;1.88;;;1.45;;
64252;SDS011;50592;52.958;-7.470;2023-05-21T07:04:07;3.65;;;1.30;;
64252;SDS011;50592;52.958;-7.470;2023-05-21T07:06:38;1.50;;;1.40;;
64252;SDS011;50592;52.958;-7.470;2023-05-21T07:09:08;2.38;;;1.20;;
64252;SDS011;50592;52.958;-7.470;2023-05-21T07:11:39;1.58;;;1.13;;
64252;SDS011;50592;52.958;-7.470;2023-05-21T07:14:10;1.00;;;1.00;;
64252;SDS011;50592;52.958;-7.470;2023-05-21T07:16:39;1.25;;;1.10;;
64252;SDS011;50592;52.958;-7.470;2023-05-21T07:19:09;2.58;;;1.40;;
64252;SDS011;50592;52.958;-7.470;2023-05-21T07:21:39;1.60;;;0.88;;
64252;SDS011;50592;52.958;-7.470;2023-05-21T07:24:09;1.30;;;0.90;;
64252;SDS011;50592;52.958;-7.470;2023-05-21T07:26:40;1.35;;;1.13;;
64252;SDS011;50592;52.958;-7.470;2023-05-21T07:29:09;1.15;;;0.93;;
64252;SDS011;50592;52.958;-7.470;2023-05-21T07:31:38;1.90;;;1.20;;
64252;SDS011;50592;52.958;-7.470;2023-05-21T07:34:05;1.58;;;0.90;;
64252;SDS011;50592;52.958;-7.470;2023-05-21T07:36:35;2.35;;;1.10;;
64252;SDS011;50592;52.958;-7.470;2023-05-21T07:39:05;0.60;;;0.50;;
64252;SDS011;50592;52.958;-7.470;2023-05-21T07:41:35;1.45;;;0.50;;
64252;SDS011;50592;52.958;-7.470;2023-05-21T07:44:08;1.02;;;0.28;;
64252;SDS011;50592;52.958;-7.470;2023-05-21T07:46:39;0.30;;;0.30;;
64252;SDS011;50592;52.958;-7.470;2023-05-21T07:49:09;0.38;;;0.20;;
64252;SDS011;50592;52.958;-7.470;2023-05-21T07:51:45;0.30;;;0.30;;
64252;SDS011;50592;52.958;-7.470;2023-05-21T07:54:16;0.30;;;0.17;;
64252;SDS011;50592;52.958;-7.470;2023-05-21T07:56:46;0.10;;;0.10;;
64252;SDS011;50592;52.958;-7.470;2023-05-21T07:59:31;0.17;;;0.17;;
64252;SDS011;50592;52.958;-7.470;2023-05-21T08:02:00;3.22;;;0.60;;
64252;SDS011;50592;52.958;-7.470;2023-05-21T08:04:27;0.30;;;0.30;;
64252;SDS011;50592;52.958;-7.470;2023-05-21T08:06:55;0.25;;;0.20;;
64252;SDS011;50592;52.958;-7.470;2023-05-21T08:09:23;0.60;;;0.20;;
64252;SDS011;50592;52.958;-7.470;2023-05-21T08:11:51;0.63;;;0.20;;
64252;SDS011;50592;52.958;-7.470;2023-05-21T08:14:19;0.10;;;0.10;;
64252;SDS011;50592;52.958;-7.470;2023-05-21T08:16:47;0.20;;;0.20;;
64252;SDS011;50592;52.958;-7.470;2023-05-21T08:19:14;0.22;;;0.20;;
64252;SDS011;50592;52.958;-7.470;2023-05-21T08:21:42;0.20;;;0.20;;
64252;SDS011;50592;52.958;-7.470;2023-05-21T08:24:10;0.20;;;0.10;;
64252;SDS011;50592;52.958;-7.470;2023-05-21T08:26:40;0.68;;;0.10;;
64252;SDS011;50592;52.958;-7.470;2023-05-21T08:29:06;0.20;;;0.20;;
64252;SDS011;50592;52.958;-7.470;2023-05-21T08:31:36;0.28;;;0.20;;
64252;SDS011;50592;52.958;-7.470;2023-05-21T08:34:08;0.20;;;0.20;;
64252;SDS011;50592;52.958;-7.470;2023-05-21T08:36:50;0.25;;;0.10;;
64252;SDS011;50592;52.958;-7.470;2023-05-21T08:39:38;0.17;;;0.17;;
64252;SDS011;50592;52.958;-7.470;2023-05-21T08:42:23;0.10;;;0.10;;
64252;SDS011;50592;52.958;-7.470;2023-05-21T08:45:03;0.15;;;0.15;;
64252;SDS011;50592;52.958;-7.470;2023-05-21T08:47:35;0.20;;;0.20;;
64252;SDS011;50592;52.958;-7.470;2023-05-21T08:50:07;0.40;;;0.15;;
64252;SDS011;50592;52.958;-7.470;2023-05-21T08:52:36;0.10;;;0.10;;
64252;SDS011;50592;52.958;-7.470;2023-05-21T08:55:05;0.15;;;0.10;;
64252;SDS011;50592;52.958;-7.470;2023-05-21T08:57:34;0.10;;;0.10;;
64252;SDS011;50592;52.958;-7.470;2023-05-21T09:00:04;0.10;;;0.10;;
64252;SDS011;50592;52.958;-7.470;2023-05-21T09:02:33;0.10;;;0.10;;
64252;SDS011;50592;52.958;-7.470;2023-05-21T09:05:05;0.30;;;0.15;;
64252;SDS011;50592;52.958;-7.470;2023-05-21T09:07:54;0.10;;;0.10;;
64252;SDS011;50592;52.958;-7.470;2023-05-21T09:10:37;0.90;;;0.10;;
64252;SDS011;50592;52.958;-7.470;2023-05-21T09:13:05;0.10;;;0.10;;
64252;SDS011;50592;52.958;-7.470;2023-05-21T09:15:35;0.10;;;0.10;;
64252;SDS011;50592;52.958;-7.470;2023-05-21T09:18:02;0.10;;;0.00;;
64252;SDS011;50592;52.958;-7.470;2023-05-21T09:20:50;0.00;;;0.00;;
64252;SDS011;50592;52.958;-7.470;2023-05-21T09:23:19;1.20;;;0.10;;
64252;SDS011;50592;52.958;-7.470;2023-05-21T09:25:48;0.10;;;0.00;;
64252;SDS011;50592;52.958;-7.470;2023-05-21T09:28:23;0.10;;;0.10;;
64252;SDS011;50592;52.958;-7.470;2023-05-21T09:30:53;0.05;;;0.05;;
64252;SDS011;50592;52.958;-7.470;2023-05-21T09:33:24;0.10;;;0.10;;
64252;SDS011;50592;52.958;-7.470;2023-05-21T09:35:52;0.00;;;0.00;;
64252;SDS011;50592;52.958;-7.470;2023-05-21T09:38:22;0.10;;;0.10;;
64252;SDS011;50592;52.958;-7.470;2023-05-21T09:40:54;0.00;;;0.00;;
64252;SDS011;50592;52.958;-7.470;2023-05-21T09:43:24;0.10;;;0.10;;
64252;SDS011;50592;52.958;-7.470;2023-05-21T09:45:55;1.27;;;0.20;;
64252;SDS011;50592;52.958;-7.470;2023-05-21T09:48:37;0.20;;;0.20;;
64252;SDS011;50592;52.958;-7.470;2023-05-21T09:51:09;0.10;;;0.10;;
64252;SDS011;50592;52.958;-7.470;2023-05-21T09:56:23;0.10;;;0.10;;
64252;SDS011;50592;52.958;-7.470;2023-05-21T09:58:52;0.20;;;0.20;;
64252;SDS011;50592;52.958;-7.470;2023-05-21T10:01:25;0.10;;;0.10;;
64252;SDS011;50592;52.958;-7.470;2023-05-21T10:03:56;0.80;;;0.20;;
64252;SDS011;50592;52.958;-7.470;2023-05-21T10:06:26;0.30;;;0.30;;
64252;SDS011;50592;52.958;-7.470;2023-05-21T10:09:01;0.40;;;0.20;;
64252;SDS011;50592;52.958;-7.470;2023-05-21T10:11:31;0.25;;;0.20;;
64252;SDS011;50592;52.958;-7.470;2023-05-21T10:14:07;0.35;;;0.10;;
64252;SDS011;50592;52.958;-7.470;2023-05-21T10:16:43;0.10;;;0.10;;
64252;SDS011;50592;52.958;-7.470;2023-05-21T10:19:14;1.52;;;0.20;;
64252;SDS011;50592;52.958;-7.470;2023-05-21T10:21:45;0.75;;;0.20;;
64252;SDS011;50592;52.958;-7.470;2023-05-21T10:24:12;0.32;;;0.30;;
64252;SDS011;50592;52.958;-7.470;2023-05-21T10:26:43;0.73;;;0.22;;
64252;SDS011;50592;52.958;-7.470;2023-05-21T10:29:14;0.32;;;0.32;;
64252;SDS011;50592;52.958;-7.470;2023-05-21T10:31:45;0.30;;;0.30;;
64252;SDS011;50592;52.958;-7.470;2023-05-21T10:34:17;0.43;;;0.43;;
64252;SDS011;50592;52.958;-7.470;2023-05-21T10:36:44;0.45;;;0.45;;
64252;SDS011;50592;52.958;-7.470;2023-05-21T10:39:17;0.32;;;0.32;;
64252;SDS011;50592;52.958;-7.470;2023-05-21T10:41:50;0.30;;;0.30;;
64252;SDS011;50592;52.958;-7.470;2023-05-21T10:44:35;0.30;;;0.30;;
64252;SDS011;50592;52.958;-7.470;2023-05-21T10:55:35;0.60;;;0.43;;
64252;SDS011;50592;52.958;-7.470;2023-05-21T11:00:41;0.22;;;0.20;;
64252;SDS011;50592;52.958;-7.470;2023-05-21T11:03:11;0.38;;;0.38;;
64252;SDS011;50592;52.958;-7.470;2023-05-21T11:05:53;0.65;;;0.38;;
64252;SDS011;50592;52.958;-7.470;2023-05-21T11:08:25;0.43;;;0.43;;
64252;SDS011;50592;52.958;-7.470;2023-05-21T11:10:59;0.10;;;0.10;;
64252;SDS011;50592;52.958;-7.470;2023-05-21T11:13:43;0.20;;;0.20;;
64252;SDS011;50592;52.958;-7.470;2023-05-21T11:16:17;0.20;;;0.20;;
64252;SDS011;50592;52.958;-7.470;2023-05-21T11:21:16;0.10;;;0.10;;
64252;SDS011;50592;52.958;-7.470;2023-05-21T11:26:20;0.28;;;0.20;;
64252;SDS011;50592;52.958;-7.470;2023-05-21T11:29:09;2.20;;;0.30;;
64252;SDS011;50592;52.958;-7.470;2023-05-21T11:31:46;0.40;;;0.30;;
64252;SDS011;50592;52.958;-7.470;2023-05-21T11:34:21;0.40;;;0.28;;
64252;SDS011;50592;52.958;-7.470;2023-05-21T11:40:14;0.20;;;0.20;;
64252;SDS011;50592;52.958;-7.470;2023-05-21T11:42:50;0.30;;;0.30;;
64252;SDS011;50592;52.958;-7.470;2023-05-21T11:45:18;0.98;;;0.30;;
64252;SDS011;50592;52.958;-7.470;2023-05-21T11:47:56;0.45;;;0.45;;
64252;SDS011;50592;52.958;-7.470;2023-05-21T11:50:26;0.30;;;0.30;;
64252;SDS011;50592;52.958;-7.470;2023-05-21T11:52:58;0.45;;;0.30;;
64252;SDS011;50592;52.958;-7.470;2023-05-21T11:55:25;0.32;;;0.32;;
64252;SDS011;50592;52.958;-7.470;2023-05-21T11:57:55;0.50;;;0.40;;
64252;SDS011;50592;52.958;-7.470;2023-05-21T12:00:27;1.05;;;0.40;;
64252;SDS011;50592;52.958;-7.470;2023-05-21T12:02:57;0.20;;;0.20;;
64252;SDS011;50592;52.958;-7.470;2023-05-21T12:05:27;0.25;;;0.25;;
64252;SDS011;50592;52.958;-7.470;2023-05-21T12:07:53;0.20;;;0.20;;
64252;SDS011;50592;52.958;-7.470;2023-05-21T12:10:22;0.50;;;0.40;;
64252;SDS011;50592;52.958;-7.470;2023-05-21T12:12:49;0.63;;;0.30;;
64252;SDS011;50592;52.958;-7.470;2023-05-21T12:15:18;0.30;;;0.30;;
64252;SDS011;50592;52.958;-7.470;2023-05-21T12:17:48;0.40;;;0.40;;
64252;SDS011;50592;52.958;-7.470;2023-05-21T12:20:19;0.80;;;0.40;;
64252;SDS011;50592;52.958;-7.470;2023-05-21T12:22:51;0.50;;;0.32;;
64252;SDS011;50592;52.958;-7.470;2023-05-21T12:25:18;0.47;;;0.40;;
64252;SDS011;50592;52.958;-7.470;2023-05-21T12:27:48;0.82;;;0.40;;
64252;SDS011;50592;52.958;-7.470;2023-05-21T12:30:24;0.32;;;0.32;;
64252;SDS011;50592;52.958;-7.470;2023-05-21T12:32:56;0.32;;;0.32;;
64252;SDS011;50592;52.958;-7.470;2023-05-21T12:35:23;0.73;;;0.40;;
64252;SDS011;50592;52.958;-7.470;2023-05-21T12:37:53;0.85;;;0.47;;
64252;SDS011;50592;52.958;-7.470;2023-05-21T12:40:33;0.75;;;0.40;;
64252;SDS011;50592;52.958;-7.470;2023-05-21T12:43:04;0.68;;;0.52;;
64252;SDS011;50592;52.958;-7.470;2023-05-21T12:45:34;0.50;;;0.50;;
64252;SDS011;50592;52.958;-7.470;2023-05-21T12:48:06;0.40;;;0.40;;
64252;SDS011;50592;52.958;-7.470;2023-05-21T12:50:39;2.60;;;0.55;;
64252;SDS011;50592;52.958;-7.470;2023-05-21T12:53:07;0.70;;;0.70;;
64252;SDS011;50592;52.958;-7.470;2023-05-21T12:55:38;0.40;;;0.40;;
64252;SDS011;50592;52.958;-7.470;2023-05-21T12:58:05;0.80;;;0.50;;
64252;SDS011;50592;52.958;-7.470;2023-05-21T13:00:35;1.15;;;0.65;;
64252;SDS011;50592;52.958;-7.470;2023-05-21T13:03:05;0.45;;;0.45;;
64252;SDS011;50592;52.958;-7.470;2023-05-21T13:05:38;0.60;;;0.60;;
64252;SDS011;50592;52.958;-7.470;2023-05-21T13:08:06;0.60;;;0.60;;
64252;SDS011;50592;52.958;-7.470;2023-05-21T13:10:37;0.47;;;0.47;;
64252;SDS011;50592;52.958;-7.470;2023-05-21T13:13:07;0.38;;;0.30;;
64252;SDS011;50592;52.958;-7.470;2023-05-21T13:15:37;0.65;;;0.35;;
64252;SDS011;50592;52.958;-7.470;2023-05-21T13:18:07;0.73;;;0.30;;
64252;SDS011;50592;52.958;-7.470;2023-05-21T13:20:37;0.35;;;0.20;;
64252;SDS011;50592;52.958;-7.470;2023-05-21T13:23:07;0.57;;;0.20;;
64252;SDS011;50592;52.958;-7.470;2023-05-21T13:25:33;2.33;;;0.30;;
64252;SDS011;50592;52.958;-7.470;2023-05-21T13:28:02;0.57;;;0.32;;
64252;SDS011;50592;52.958;-7.470;2023-05-21T13:30:30;2.08;;;0.10;;
64252;SDS011;50592;52.958;-7.470;2023-05-21T13:33:01;0.20;;;0.20;;
64252;SDS011;50592;52.958;-7.470;2023-05-21T13:35:31;0.45;;;0.20;;
64252;SDS011;50592;52.958;-7.470;2023-05-21T13:38:01;0.40;;;0.40;;
64252;SDS011;50592;52.958;-7.470;2023-05-21T13:40:31;0.35;;;0.20;;
64252;SDS011;50592;52.958;-7.470;2023-05-21T13:43:01;0.20;;;0.20;;
64252;SDS011;50592;52.958;-7.470;2023-05-21T13:45:28;0.40;;;0.40;;
64252;SDS011;50592;52.958;-7.470;2023-05-21T13:47:56;0.28;;;0.25;;
64252;SDS011;50592;52.958;-7.470;2023-05-21T13:50:26;2.60;;;0.10;;
64252;SDS011;50592;52.958;-7.470;2023-05-21T13:52:56;0.55;;;0.20;;
64252;SDS011;50592;52.958;-7.470;2023-05-21T13:55:26;0.10;;;0.10;;
64252;SDS011;50592;52.958;-7.470;2023-05-21T13:57:52;0.10;;;0.10;;
64252;SDS011;50592;52.958;-7.470;2023-05-21T14:00:22;0.28;;;0.20;;
64252;SDS011;50592;52.958;-7.470;2023-05-21T14:02:52;0.20;;;0.20;;
64252;SDS011;50592;52.958;-7.470;2023-05-21T14:05:22;0.20;;;0.20;;
64252;SDS011;50592;52.958;-7.470;2023-05-21T14:07:52;2.58;;;0.45;;
64252;SDS011;50592;52.958;-7.470;2023-05-21T14:10:21;0.88;;;0.38;;
64252;SDS011;50592;52.958;-7.470;2023-05-21T14:12:51;0.47;;;0.40;;
64252;SDS011;50592;52.958;-7.470;2023-05-21T14:15:18;0.70;;;0.50;;
64252;SDS011;50592;52.958;-7.470;2023-05-21T14:17:47;1.17;;;0.40;;
64252;SDS011;50592;52.958;-7.470;2023-05-21T14:20:13;0.30;;;0.30;;
64252;SDS011;50592;52.958;-7.470;2023-05-21T14:22:42;0.63;;;0.30;;
64252;SDS011;50592;52.958;-7.470;2023-05-21T14:25:09;0.40;;;0.40;;
64252;SDS011;50592;52.958;-7.470;2023-05-21T14:27:39;0.60;;;0.40;;
64252;SDS011;50592;52.958;-7.470;2023-05-21T14:30:06;1.27;;;0.40;;
64252;SDS011;50592;52.958;-7.470;2023-05-21T14:32:36;1.65;;;0.50;;
64252;SDS011;50592;52.958;-7.470;2023-05-21T14:35:06;0.63;;;0.30;;
64252;SDS011;50592;52.958;-7.470;2023-05-21T14:37:36;0.73;;;0.73;;
64252;SDS011;50592;52.958;-7.470;2023-05-21T14:40:06;0.70;;;0.60;;
64252;SDS011;50592;52.958;-7.470;2023-05-21T14:42:33;0.60;;;0.47;;
64252;SDS011;50592;52.958;-7.470;2023-05-21T14:45:03;0.50;;;0.50;;
64252;SDS011;50592;52.958;-7.470;2023-05-21T14:47:30;0.50;;;0.50;;
64252;SDS011;50592;52.958;-7.470;2023-05-21T14:50:00;1.42;;;0.80;;
64252;SDS011;50592;52.958;-7.470;2023-05-21T14:52:29;0.80;;;0.80;;
64252;SDS011;50592;52.958;-7.470;2023-05-21T14:54:59;2.92;;;0.70;;
64252;SDS011;50592;52.958;-7.470;2023-05-21T14:57:29;1.02;;;0.50;;
64252;SDS011;50592;52.958;-7.470;2023-05-21T14:59:59;0.52;;;0.50;;
64252;SDS011;50592;52.958;-7.470;2023-05-21T15:02:26;0.50;;;0.50;;
64252;SDS011;50592;52.958;-7.470;2023-05-21T15:04:55;0.73;;;0.60;;
64252;SDS011;50592;52.958;-7.470;2023-05-21T15:07:21;1.38;;;0.60;;
64252;SDS011;50592;52.958;-7.470;2023-05-21T15:09:50;0.50;;;0.50;;
64252;SDS011;50592;52.958;-7.470;2023-05-21T15:12:17;0.63;;;0.52;;
64252;SDS011;50592;52.958;-7.470;2023-05-21T15:14:46;0.50;;;0.50;;
64252;SDS011;50592;52.958;-7.470;2023-05-21T15:17:12;0.57;;;0.57;;
64252;SDS011;50592;52.958;-7.470;2023-05-21T15:19:41;0.90;;;0.90;;
64252;SDS011;50592;52.958;-7.470;2023-05-21T15:22:08;0.50;;;0.50;;